sensor_id;sensor_type;location;lat;lon;timestamp;P1;durP1;ratioP1;P2;durP2;ratioP2
13463;SDS011;6804;48.774;9.174;2022-07-23T00:01:01;4.35;;;3.95;;
13463;SDS011;6804;48.774;9.174;2022-07-23T00:03:33;5.32;;;4.13;;
13463;SDS011;6804;48.774;9.174;2022-07-23T00:06:01;9.10;;;4.15;;
13463;SDS011;6804;48.774;9.174;2022-07-23T00:08:29;4.68;;;4.28;;
13463;SDS011;6804;48.774;9.174;2022-07-23T00:10:57;4.47;;;4.07;;
13463;SDS011;6804;48.774;9.174;2022-07-23T00:13:26;7.97;;;5.00;;
13463;SDS011;6804;48.774;9.174;2022-07-23T00:15:55;4.65;;;4.15;;
13463;SDS011;6804;48.774;9.174;2022-07-23T00:18:22;4.13;;;3.83;;
13463;SDS011;6804;48.774;9.174;2022-07-23T00:20:50;6.35;;;3.80;;
13463;SDS011;6804;48.774;9.174;2022-07-23T00:23:21;4.47;;;4.07;;
13463;SDS011;6804;48.774;9.174;2022-07-23T00:25:56;4.53;;;3.78;;
13463;SDS011;6804;48.774;9.174;2022-07-23T00:28:24;4.18;;;3.80;;
13463;SDS011;6804;48.774;9.174;2022-07-23T00:30:56;5.70;;;4.43;;
13463;SDS011;6804;48.774;9.174;2022-07-23T00:33:26;4.32;;;3.78;;
13463;SDS011;6804;48.774;9.174;2022-07-23T00:35:54;5.68;;;3.78;;
13463;SDS011;6804;48.774;9.174;2022-07-23T00:38:24;4.28;;;3.88;;
13463;SDS011;6804;48.774;9.174;2022-07-23T00:40:51;4.30;;;3.90;;
13463;SDS011;6804;48.774;9.174;2022-07-23T00:43:20;3.53;;;3.22;;
13463;SDS011;6804;48.774;9.174;2022-07-23T00:45:50;4.53;;;3.88;;
13463;SDS011;6804;48.774;9.174;2022-07-23T00:48:22;5.15;;;3.67;;
13463;SDS011;6804;48.774;9.174;2022-07-23T00:50:52;3.72;;;3.42;;
13463;SDS011;6804;48.774;9.174;2022-07-23T00:53:20;5.15;;;3.80;;
13463;SDS011;6804;48.774;9.174;2022-07-23T00:55:48;4.53;;;3.58;;
13463;SDS011;6804;48.774;9.174;2022-07-23T00:58:15;3.90;;;3.53;;
13463;SDS011;6804;48.774;9.174;2022-07-23T01:00:43;4.05;;;3.67;;
13463;SDS011;6804;48.774;9.174;2022-07-23T01:03:11;4.15;;;3.78;;
13463;SDS011;6804;48.774;9.174;2022-07-23T01:05:42;4.00;;;3.70;;
13463;SDS011;6804;48.774;9.174;2022-07-23T01:08:10;3.92;;;3.55;;
13463;SDS011;6804;48.774;9.174;2022-07-23T01:10:41;3.88;;;3.53;;
13463;SDS011;6804;48.774;9.174;2022-07-23T01:13:09;4.53;;;3.53;;
13463;SDS011;6804;48.774;9.174;2022-07-23T01:15:40;4.47;;;4.07;;
13463;SDS011;6804;48.774;9.174;2022-07-23T01:18:07;4.45;;;4.05;;
13463;SDS011;6804;48.774;9.174;2022-07-23T01:20:38;3.80;;;3.50;;
13463;SDS011;6804;48.774;9.174;2022-07-23T01:23:07;4.00;;;3.70;;
13463;SDS011;6804;48.774;9.174;2022-07-23T01:25:37;4.13;;;3.67;;
13463;SDS011;6804;48.774;9.174;2022-07-23T01:28:16;4.57;;;3.80;;
13463;SDS011;6804;48.774;9.174;2022-07-23T01:30:44;4.20;;;3.80;;
13463;SDS011;6804;48.774;9.174;2022-07-23T01:33:12;4.20;;;3.30;;
13463;SDS011;6804;48.774;9.174;2022-07-23T01:35:41;3.88;;;3.58;;
13463;SDS011;6804;48.774;9.174;2022-07-23T01:38:10;3.60;;;3.30;;
13463;SDS011;6804;48.774;9.174;2022-07-23T01:40:38;3.80;;;3.50;;
13463;SDS011;6804;48.774;9.174;2022-07-23T01:43:08;3.92;;;3.63;;
13463;SDS011;6804;48.774;9.174;2022-07-23T01:45:35;5.13;;;4.30;;
13463;SDS011;6804;48.774;9.174;2022-07-23T01:48:03;4.20;;;3.70;;
13463;SDS011;6804;48.774;9.174;2022-07-23T01:50:32;3.78;;;3.47;;
13463;SDS011;6804;48.774;9.174;2022-07-23T01:53:00;3.80;;;3.40;;
13463;SDS011;6804;48.774;9.174;2022-07-23T01:55:28;4.47;;;3.70;;
13463;SDS011;6804;48.774;9.174;2022-07-23T01:57:56;3.65;;;3.35;;
13463;SDS011;6804;48.774;9.174;2022-07-23T02:00:24;3.88;;;3.58;;
13463;SDS011;6804;48.774;9.174;2022-07-23T02:02:52;4.00;;;3.70;;
13463;SDS011;6804;48.774;9.174;2022-07-23T02:05:19;4.05;;;3.65;;
13463;SDS011;6804;48.774;9.174;2022-07-23T02:07:50;3.70;;;3.40;;
13463;SDS011;6804;48.774;9.174;2022-07-23T02:10:17;4.07;;;3.70;;
13463;SDS011;6804;48.774;9.174;2022-07-23T02:12:49;3.83;;;3.53;;
13463;SDS011;6804;48.774;9.174;2022-07-23T02:15:17;4.10;;;3.80;;
13463;SDS011;6804;48.774;9.174;2022-07-23T02:17:46;5.15;;;4.65;;
13463;SDS011;6804;48.774;9.174;2022-07-23T02:20:13;4.68;;;4.28;;
13463;SDS011;6804;48.774;9.174;2022-07-23T02:22:41;5.35;;;4.10;;
13463;SDS011;6804;48.774;9.174;2022-07-23T02:25:11;4.32;;;3.45;;
13463;SDS011;6804;48.774;9.174;2022-07-23T02:27:38;3.75;;;3.45;;
13463;SDS011;6804;48.774;9.174;2022-07-23T02:30:08;3.97;;;3.67;;
13463;SDS011;6804;48.774;9.174;2022-07-23T02:32:38;4.38;;;3.85;;
13463;SDS011;6804;48.774;9.174;2022-07-23T02:35:11;3.95;;;3.65;;
13463;SDS011;6804;48.774;9.174;2022-07-23T02:37:38;3.88;;;3.47;;
13463;SDS011;6804;48.774;9.174;2022-07-23T02:40:09;4.45;;;3.70;;
13463;SDS011;6804;48.774;9.174;2022-07-23T02:42:37;4.18;;;3.78;;
13463;SDS011;6804;48.774;9.174;2022-07-23T02:45:06;3.67;;;3.38;;
13463;SDS011;6804;48.774;9.174;2022-07-23T02:47:36;3.65;;;3.22;;
13463;SDS011;6804;48.774;9.174;2022-07-23T02:50:04;4.18;;;3.72;;
13463;SDS011;6804;48.774;9.174;2022-07-23T02:52:32;4.80;;;3.72;;
13463;SDS011;6804;48.774;9.174;2022-07-23T02:55:00;4.03;;;3.72;;
13463;SDS011;6804;48.774;9.174;2022-07-23T02:57:27;4.32;;;3.60;;
13463;SDS011;6804;48.774;9.174;2022-07-23T02:59:57;3.95;;;3.38;;
13463;SDS011;6804;48.774;9.174;2022-07-23T03:02:30;4.43;;;4.05;;
13463;SDS011;6804;48.774;9.174;2022-07-23T03:04:58;3.95;;;3.55;;
13463;SDS011;6804;48.774;9.174;2022-07-23T03:07:25;3.80;;;3.50;;
13463;SDS011;6804;48.774;9.174;2022-07-23T03:09:56;4.18;;;3.78;;
13463;SDS011;6804;48.774;9.174;2022-07-23T03:12:28;4.68;;;3.58;;
13463;SDS011;6804;48.774;9.174;2022-07-23T03:14:56;3.90;;;3.50;;
13463;SDS011;6804;48.774;9.174;2022-07-23T03:17:23;4.35;;;3.92;;
13463;SDS011;6804;48.774;9.174;2022-07-23T03:19:52;4.50;;;4.10;;
13463;SDS011;6804;48.774;9.174;2022-07-23T03:22:19;4.30;;;3.88;;
13463;SDS011;6804;48.774;9.174;2022-07-23T03:24:49;4.25;;;3.85;;
13463;SDS011;6804;48.774;9.174;2022-07-23T03:27:23;5.43;;;4.05;;
13463;SDS011;6804;48.774;9.174;2022-07-23T03:29:52;4.47;;;3.97;;
13463;SDS011;6804;48.774;9.174;2022-07-23T03:32:22;4.95;;;3.90;;
13463;SDS011;6804;48.774;9.174;2022-07-23T03:34:54;4.40;;;4.00;;
13463;SDS011;6804;48.774;9.174;2022-07-23T03:37:25;4.25;;;3.92;;
13463;SDS011;6804;48.774;9.174;2022-07-23T03:39:53;4.25;;;3.95;;
13463;SDS011;6804;48.774;9.174;2022-07-23T03:42:21;4.38;;;4.05;;
13463;SDS011;6804;48.774;9.174;2022-07-23T03:44:51;3.95;;;3.63;;
13463;SDS011;6804;48.774;9.174;2022-07-23T03:47:18;4.13;;;3.83;;
13463;SDS011;6804;48.774;9.174;2022-07-23T03:49:51;4.30;;;3.90;;
13463;SDS011;6804;48.774;9.174;2022-07-23T03:52:20;4.00;;;3.60;;
13463;SDS011;6804;48.774;9.174;2022-07-23T03:54:48;4.68;;;4.28;;
13463;SDS011;6804;48.774;9.174;2022-07-23T03:57:15;4.43;;;4.00;;
13463;SDS011;6804;48.774;9.174;2022-07-23T03:59:42;4.68;;;4.28;;
13463;SDS011;6804;48.774;9.174;2022-07-23T04:02:10;4.93;;;4.25;;
13463;SDS011;6804;48.774;9.174;2022-07-23T04:04:40;5.03;;;4.00;;
13463;SDS011;6804;48.774;9.174;2022-07-23T04:07:07;4.38;;;3.97;;
13463;SDS011;6804;48.774;9.174;2022-07-23T04:09:48;4.72;;;4.18;;
13463;SDS011;6804;48.774;9.174;2022-07-23T04:12:15;4.30;;;3.90;;
13463;SDS011;6804;48.774;9.174;2022-07-23T04:14:42;4.55;;;4.15;;
13463;SDS011;6804;48.774;9.174;2022-07-23T04:17:12;6.13;;;4.05;;
13463;SDS011;6804;48.774;9.174;2022-07-23T04:19:39;5.90;;;4.40;;
13463;SDS011;6804;48.774;9.174;2022-07-23T04:22:09;5.18;;;4.57;;
13463;SDS011;6804;48.774;9.174;2022-07-23T04:24:42;4.20;;;3.80;;
13463;SDS011;6804;48.774;9.174;2022-07-23T04:27:13;4.47;;;3.97;;
13463;SDS011;6804;48.774;9.174;2022-07-23T04:29:43;4.55;;;4.15;;
13463;SDS011;6804;48.774;9.174;2022-07-23T04:32:12;4.43;;;4.13;;
13463;SDS011;6804;48.774;9.174;2022-07-23T04:34:39;4.65;;;4.13;;
13463;SDS011;6804;48.774;9.174;2022-07-23T04:37:12;4.65;;;4.25;;
13463;SDS011;6804;48.774;9.174;2022-07-23T04:39:39;4.53;;;4.13;;
13463;SDS011;6804;48.774;9.174;2022-07-23T04:42:07;4.68;;;4.28;;
13463;SDS011;6804;48.774;9.174;2022-07-23T04:44:36;4.63;;;3.80;;
13463;SDS011;6804;48.774;9.174;2022-07-23T04:47:04;7.10;;;4.22;;
13463;SDS011;6804;48.774;9.174;2022-07-23T04:49:31;4.40;;;4.05;;
13463;SDS011;6804;48.774;9.174;2022-07-23T04:51:58;4.22;;;3.83;;
13463;SDS011;6804;48.774;9.174;2022-07-23T04:54:35;4.85;;;4.45;;
13463;SDS011;6804;48.774;9.174;2022-07-23T04:57:02;4.88;;;4.30;;
13463;SDS011;6804;48.774;9.174;2022-07-23T04:59:37;4.00;;;3.70;;
13463;SDS011;6804;48.774;9.174;2022-07-23T05:02:04;4.47;;;4.07;;
13463;SDS011;6804;48.774;9.174;2022-07-23T05:04:32;4.43;;;4.03;;
13463;SDS011;6804;48.774;9.174;2022-07-23T05:07:00;6.22;;;3.95;;
13463;SDS011;6804;48.774;9.174;2022-07-23T05:09:28;4.70;;;4.30;;
13463;SDS011;6804;48.774;9.174;2022-07-23T05:11:59;5.20;;;4.25;;
13463;SDS011;6804;48.774;9.174;2022-07-23T05:14:27;4.97;;;4.57;;
13463;SDS011;6804;48.774;9.174;2022-07-23T05:16:56;5.25;;;4.35;;
13463;SDS011;6804;48.774;9.174;2022-07-23T05:19:23;4.85;;;4.25;;
13463;SDS011;6804;48.774;9.174;2022-07-23T05:21:53;4.50;;;4.10;;
13463;SDS011;6804;48.774;9.174;2022-07-23T05:24:23;4.93;;;3.88;;
13463;SDS011;6804;48.774;9.174;2022-07-23T05:26:53;4.85;;;3.80;;
13463;SDS011;6804;48.774;9.174;2022-07-23T05:29:23;4.85;;;4.40;;
13463;SDS011;6804;48.774;9.174;2022-07-23T05:31:53;4.30;;;4.00;;
13463;SDS011;6804;48.774;9.174;2022-07-23T05:34:22;4.75;;;4.35;;
13463;SDS011;6804;48.774;9.174;2022-07-23T05:36:50;4.60;;;4.20;;
13463;SDS011;6804;48.774;9.174;2022-07-23T05:39:19;4.93;;;4.53;;
13463;SDS011;6804;48.774;9.174;2022-07-23T05:41:49;4.80;;;3.80;;
13463;SDS011;6804;48.774;9.174;2022-07-23T05:44:17;4.45;;;4.10;;
13463;SDS011;6804;48.774;9.174;2022-07-23T05:46:46;4.70;;;4.30;;
13463;SDS011;6804;48.774;9.174;2022-07-23T05:49:20;4.57;;;4.20;;
13463;SDS011;6804;48.774;9.174;2022-07-23T05:51:52;5.78;;;4.40;;
13463;SDS011;6804;48.774;9.174;2022-07-23T05:54:22;4.90;;;4.40;;
13463;SDS011;6804;48.774;9.174;2022-07-23T05:56:52;4.72;;;4.32;;
13463;SDS011;6804;48.774;9.174;2022-07-23T05:59:20;6.53;;;5.18;;
13463;SDS011;6804;48.774;9.174;2022-07-23T06:01:50;5.00;;;4.60;;
13463;SDS011;6804;48.774;9.174;2022-07-23T06:04:17;4.97;;;4.47;;
13463;SDS011;6804;48.774;9.174;2022-07-23T06:06:46;4.80;;;4.35;;
13463;SDS011;6804;48.774;9.174;2022-07-23T06:09:13;4.75;;;4.35;;
13463;SDS011;6804;48.774;9.174;2022-07-23T06:11:43;5.20;;;4.70;;
13463;SDS011;6804;48.774;9.174;2022-07-23T06:14:14;5.60;;;4.78;;
13463;SDS011;6804;48.774;9.174;2022-07-23T06:16:41;5.03;;;4.63;;
13463;SDS011;6804;48.774;9.174;2022-07-23T06:19:08;6.78;;;4.32;;
13463;SDS011;6804;48.774;9.174;2022-07-23T06:21:36;5.13;;;4.72;;
13463;SDS011;6804;48.774;9.174;2022-07-23T06:24:07;5.13;;;4.65;;
13463;SDS011;6804;48.774;9.174;2022-07-23T06:26:34;5.15;;;4.68;;
13463;SDS011;6804;48.774;9.174;2022-07-23T06:29:02;4.53;;;4.15;;
13463;SDS011;6804;48.774;9.174;2022-07-23T06:31:30;5.20;;;4.72;;
13463;SDS011;6804;48.774;9.174;2022-07-23T06:33:57;4.82;;;4.43;;
13463;SDS011;6804;48.774;9.174;2022-07-23T06:36:24;5.07;;;4.63;;
13463;SDS011;6804;48.774;9.174;2022-07-23T06:38:54;4.82;;;4.43;;
13463;SDS011;6804;48.774;9.174;2022-07-23T06:41:25;5.20;;;4.45;;
13463;SDS011;6804;48.774;9.174;2022-07-23T06:43:53;4.82;;;4.32;;
13463;SDS011;6804;48.774;9.174;2022-07-23T06:46:22;4.80;;;3.97;;
13463;SDS011;6804;48.774;9.174;2022-07-23T06:48:50;4.93;;;4.53;;
13463;SDS011;6804;48.774;9.174;2022-07-23T06:51:17;5.30;;;4.80;;
13463;SDS011;6804;48.774;9.174;2022-07-23T06:53:47;4.82;;;4.43;;
13463;SDS011;6804;48.774;9.174;2022-07-23T06:56:17;4.80;;;4.40;;
13463;SDS011;6804;48.774;9.174;2022-07-23T06:58:46;4.82;;;4.43;;
13463;SDS011;6804;48.774;9.174;2022-07-23T07:01:18;4.70;;;4.30;;
13463;SDS011;6804;48.774;9.174;2022-07-23T07:03:48;6.25;;;4.40;;
13463;SDS011;6804;48.774;9.174;2022-07-23T07:06:16;5.20;;;4.70;;
13463;SDS011;6804;48.774;9.174;2022-07-23T07:08:46;4.72;;;4.32;;
13463;SDS011;6804;48.774;9.174;2022-07-23T07:11:18;5.30;;;4.80;;
13463;SDS011;6804;48.774;9.174;2022-07-23T07:13:47;5.45;;;4.95;;
13463;SDS011;6804;48.774;9.174;2022-07-23T07:16:14;4.93;;;4.50;;
13463;SDS011;6804;48.774;9.174;2022-07-23T07:18:42;5.03;;;4.63;;
13463;SDS011;6804;48.774;9.174;2022-07-23T07:21:11;5.25;;;4.72;;
13463;SDS011;6804;48.774;9.174;2022-07-23T07:23:39;5.00;;;4.60;;
13463;SDS011;6804;48.774;9.174;2022-07-23T07:26:09;5.53;;;4.75;;
13463;SDS011;6804;48.774;9.174;2022-07-23T07:28:36;7.78;;;5.20;;
13463;SDS011;6804;48.774;9.174;2022-07-23T07:31:06;5.03;;;4.55;;
13463;SDS011;6804;48.774;9.174;2022-07-23T07:33:33;5.47;;;4.97;;
13463;SDS011;6804;48.774;9.174;2022-07-23T07:36:07;5.40;;;4.68;;
13463;SDS011;6804;48.774;9.174;2022-07-23T07:38:38;5.30;;;4.90;;
13463;SDS011;6804;48.774;9.174;2022-07-23T07:41:05;5.45;;;4.95;;
13463;SDS011;6804;48.774;9.174;2022-07-23T07:43:38;5.88;;;5.18;;
13463;SDS011;6804;48.774;9.174;2022-07-23T07:46:07;6.07;;;5.57;;
13463;SDS011;6804;48.774;9.174;2022-07-23T07:48:36;5.53;;;5.05;;
13463;SDS011;6804;48.774;9.174;2022-07-23T07:51:04;5.18;;;4.78;;
13463;SDS011;6804;48.774;9.174;2022-07-23T07:53:32;5.68;;;5.00;;
13463;SDS011;6804;48.774;9.174;2022-07-23T07:55:59;6.65;;;5.00;;
13463;SDS011;6804;48.774;9.174;2022-07-23T07:58:27;5.40;;;4.90;;
13463;SDS011;6804;48.774;9.174;2022-07-23T08:00:55;5.30;;;4.90;;
13463;SDS011;6804;48.774;9.174;2022-07-23T08:03:27;5.35;;;4.85;;
13463;SDS011;6804;48.774;9.174;2022-07-23T08:05:55;5.43;;;4.75;;
13463;SDS011;6804;48.774;9.174;2022-07-23T08:08:22;4.65;;;4.20;;
13463;SDS011;6804;48.774;9.174;2022-07-23T08:10:50;5.65;;;4.80;;
13463;SDS011;6804;48.774;9.174;2022-07-23T08:13:18;4.65;;;4.25;;
13463;SDS011;6804;48.774;9.174;2022-07-23T08:15:48;4.97;;;4.57;;
13463;SDS011;6804;48.774;9.174;2022-07-23T08:18:18;4.95;;;4.50;;
13463;SDS011;6804;48.774;9.174;2022-07-23T08:20:47;6.03;;;4.78;;
13463;SDS011;6804;48.774;9.174;2022-07-23T08:23:18;5.10;;;4.60;;
13463;SDS011;6804;48.774;9.174;2022-07-23T08:25:45;5.78;;;4.88;;
13463;SDS011;6804;48.774;9.174;2022-07-23T08:28:14;4.55;;;4.13;;
13463;SDS011;6804;48.774;9.174;2022-07-23T08:30:45;4.72;;;4.25;;
13463;SDS011;6804;48.774;9.174;2022-07-23T08:33:20;5.05;;;4.53;;
13463;SDS011;6804;48.774;9.174;2022-07-23T08:35:49;4.68;;;4.25;;
13463;SDS011;6804;48.774;9.174;2022-07-23T08:38:21;5.10;;;4.60;;
13463;SDS011;6804;48.774;9.174;2022-07-23T08:40:51;5.13;;;4.60;;
13463;SDS011;6804;48.774;9.174;2022-07-23T08:43:23;5.03;;;4.53;;
13463;SDS011;6804;48.774;9.174;2022-07-23T08:45:51;6.15;;;4.82;;
13463;SDS011;6804;48.774;9.174;2022-07-23T08:48:22;6.93;;;4.57;;
13463;SDS011;6804;48.774;9.174;2022-07-23T08:50:52;5.20;;;4.70;;
13463;SDS011;6804;48.774;9.174;2022-07-23T08:53:21;5.75;;;5.05;;
13463;SDS011;6804;48.774;9.174;2022-07-23T08:55:51;5.32;;;4.85;;
13463;SDS011;6804;48.774;9.174;2022-07-23T08:58:21;6.07;;;5.50;;
13463;SDS011;6804;48.774;9.174;2022-07-23T09:00:50;5.13;;;4.63;;
13463;SDS011;6804;48.774;9.174;2022-07-23T09:03:18;5.47;;;4.82;;
13463;SDS011;6804;48.774;9.174;2022-07-23T09:05:48;6.13;;;5.10;;
13463;SDS011;6804;48.774;9.174;2022-07-23T09:08:22;6.57;;;4.93;;
13463;SDS011;6804;48.774;9.174;2022-07-23T09:10:52;5.50;;;5.00;;
13463;SDS011;6804;48.774;9.174;2022-07-23T09:13:33;7.68;;;5.20;;
13463;SDS011;6804;48.774;9.174;2022-07-23T09:16:04;6.43;;;5.22;;
13463;SDS011;6804;48.774;9.174;2022-07-23T09:18:35;5.13;;;4.57;;
13463;SDS011;6804;48.774;9.174;2022-07-23T09:21:05;5.10;;;4.70;;
13463;SDS011;6804;48.774;9.174;2022-07-23T09:23:43;5.68;;;5.10;;
13463;SDS011;6804;48.774;9.174;2022-07-23T09:29:13;7.28;;;4.68;;
13463;SDS011;6804;48.774;9.174;2022-07-23T09:31:53;4.50;;;4.10;;
13463;SDS011;6804;48.774;9.174;2022-07-23T09:34:21;6.15;;;5.63;;
13463;SDS011;6804;48.774;9.174;2022-07-23T09:36:51;6.18;;;4.75;;
13463;SDS011;6804;48.774;9.174;2022-07-23T09:39:26;6.20;;;4.53;;
13463;SDS011;6804;48.774;9.174;2022-07-23T09:41:55;4.90;;;4.40;;
13463;SDS011;6804;48.774;9.174;2022-07-23T09:44:23;5.55;;;4.63;;
13463;SDS011;6804;48.774;9.174;2022-07-23T09:46:51;5.38;;;4.90;;
13463;SDS011;6804;48.774;9.174;2022-07-23T09:49:26;4.95;;;4.55;;
13463;SDS011;6804;48.774;9.174;2022-07-23T09:51:57;5.20;;;4.70;;
13463;SDS011;6804;48.774;9.174;2022-07-23T09:54:33;6.00;;;5.00;;
13463;SDS011;6804;48.774;9.174;2022-07-23T09:57:04;5.22;;;4.72;;
13463;SDS011;6804;48.774;9.174;2022-07-23T09:59:34;5.88;;;5.30;;
13463;SDS011;6804;48.774;9.174;2022-07-23T10:02:03;5.55;;;5.00;;
13463;SDS011;6804;48.774;9.174;2022-07-23T10:04:32;7.10;;;5.70;;
13463;SDS011;6804;48.774;9.174;2022-07-23T10:07:04;5.43;;;4.93;;
13463;SDS011;6804;48.774;9.174;2022-07-23T10:09:38;5.53;;;5.07;;
13463;SDS011;6804;48.774;9.174;2022-07-23T10:12:10;10.20;;;7.53;;
13463;SDS011;6804;48.774;9.174;2022-07-23T10:14:44;10.35;;;9.25;;
13463;SDS011;6804;48.774;9.174;2022-07-23T10:17:12;7.82;;;7.05;;
13463;SDS011;6804;48.774;9.174;2022-07-23T10:19:40;6.35;;;5.75;;
13463;SDS011;6804;48.774;9.174;2022-07-23T10:22:11;8.27;;;5.80;;
13463;SDS011;6804;48.774;9.174;2022-07-23T10:24:49;5.68;;;5.07;;
13463;SDS011;6804;48.774;9.174;2022-07-23T10:27:42;6.38;;;4.72;;
13463;SDS011;6804;48.774;9.174;2022-07-23T10:30:18;5.05;;;4.45;;
13463;SDS011;6804;48.774;9.174;2022-07-23T10:33:00;5.60;;;5.10;;
13463;SDS011;6804;48.774;9.174;2022-07-23T10:35:44;4.80;;;4.38;;
13463;SDS011;6804;48.774;9.174;2022-07-23T10:38:19;6.13;;;4.30;;
13463;SDS011;6804;48.774;9.174;2022-07-23T10:40:55;4.60;;;4.20;;
13463;SDS011;6804;48.774;9.174;2022-07-23T10:43:24;4.97;;;4.45;;
13463;SDS011;6804;48.774;9.174;2022-07-23T10:45:52;4.63;;;4.20;;
13463;SDS011;6804;48.774;9.174;2022-07-23T10:48:23;5.40;;;4.88;;
13463;SDS011;6804;48.774;9.174;2022-07-23T10:51:07;4.95;;;4.45;;
13463;SDS011;6804;48.774;9.174;2022-07-23T10:53:54;4.40;;;4.07;;
13463;SDS011;6804;48.774;9.174;2022-07-23T11:02:41;4.30;;;4.00;;
13463;SDS011;6804;48.774;9.174;2022-07-23T11:05:11;4.70;;;4.25;;
13463;SDS011;6804;48.774;9.174;2022-07-23T11:10:54;5.30;;;4.80;;
13463;SDS011;6804;48.774;9.174;2022-07-23T11:13:39;4.95;;;4.55;;
13463;SDS011;6804;48.774;9.174;2022-07-23T11:16:22;5.00;;;4.60;;
13463;SDS011;6804;48.774;9.174;2022-07-23T11:21:45;5.38;;;4.88;;
13463;SDS011;6804;48.774;9.174;2022-07-23T11:24:20;6.13;;;4.88;;
13463;SDS011;6804;48.774;9.174;2022-07-23T11:26:56;5.28;;;4.75;;
13463;SDS011;6804;48.774;9.174;2022-07-23T11:29:41;4.95;;;4.55;;
13463;SDS011;6804;48.774;9.174;2022-07-23T11:35:27;4.82;;;4.43;;
13463;SDS011;6804;48.774;9.174;2022-07-23T11:38:03;5.20;;;4.70;;
13463;SDS011;6804;48.774;9.174;2022-07-23T11:40:34;5.35;;;4.85;;
13463;SDS011;6804;48.774;9.174;2022-07-23T11:43:03;5.20;;;4.75;;
13463;SDS011;6804;48.774;9.174;2022-07-23T11:45:38;4.90;;;4.50;;
13463;SDS011;6804;48.774;9.174;2022-07-23T11:48:15;4.70;;;4.40;;
13463;SDS011;6804;48.774;9.174;2022-07-23T11:50:44;5.30;;;4.90;;
13463;SDS011;6804;48.774;9.174;2022-07-23T11:53:21;5.10;;;4.70;;
13463;SDS011;6804;48.774;9.174;2022-07-23T11:55:54;5.15;;;4.65;;
13463;SDS011;6804;48.774;9.174;2022-07-23T11:58:33;5.88;;;5.38;;
13463;SDS011;6804;48.774;9.174;2022-07-23T12:01:04;6.13;;;5.22;;
13463;SDS011;6804;48.774;9.174;2022-07-23T12:03:36;5.28;;;4.88;;
13463;SDS011;6804;48.774;9.174;2022-07-23T12:06:15;6.32;;;5.78;;
13463;SDS011;6804;48.774;9.174;2022-07-23T12:08:43;5.97;;;5.47;;
13463;SDS011;6804;48.774;9.174;2022-07-23T12:11:13;5.63;;;5.13;;
13463;SDS011;6804;48.774;9.174;2022-07-23T12:13:41;5.03;;;4.63;;
13463;SDS011;6804;48.774;9.174;2022-07-23T12:16:16;5.55;;;5.00;;
13463;SDS011;6804;48.774;9.174;2022-07-23T12:18:44;5.40;;;5.00;;
13463;SDS011;6804;48.774;9.174;2022-07-23T12:21:12;5.68;;;5.22;;
13463;SDS011;6804;48.774;9.174;2022-07-23T12:23:41;5.35;;;4.85;;
13463;SDS011;6804;48.774;9.174;2022-07-23T12:26:11;5.28;;;4.88;;
13463;SDS011;6804;48.774;9.174;2022-07-23T12:28:40;4.82;;;4.43;;
13463;SDS011;6804;48.774;9.174;2022-07-23T12:31:10;5.50;;;5.05;;
13463;SDS011;6804;48.774;9.174;2022-07-23T12:33:43;5.13;;;4.70;;
13463;SDS011;6804;48.774;9.174;2022-07-23T12:36:11;5.30;;;4.90;;
13463;SDS011;6804;48.774;9.174;2022-07-23T12:38:40;4.95;;;4.55;;
13463;SDS011;6804;48.774;9.174;2022-07-23T12:41:10;5.60;;;5.10;;
13463;SDS011;6804;48.774;9.174;2022-07-23T12:43:41;5.50;;;5.10;;
13463;SDS011;6804;48.774;9.174;2022-07-23T12:46:13;6.15;;;5.65;;
13463;SDS011;6804;48.774;9.174;2022-07-23T12:48:51;5.43;;;4.78;;
13463;SDS011;6804;48.774;9.174;2022-07-23T12:51:20;5.75;;;5.22;;
13463;SDS011;6804;48.774;9.174;2022-07-23T12:53:52;5.15;;;4.75;;
13463;SDS011;6804;48.774;9.174;2022-07-23T12:56:27;5.78;;;5.15;;
13463;SDS011;6804;48.774;9.174;2022-07-23T12:58:57;5.50;;;5.10;;
13463;SDS011;6804;48.774;9.174;2022-07-23T13:01:27;5.72;;;5.13;;
13463;SDS011;6804;48.774;9.174;2022-07-23T13:04:01;5.97;;;5.30;;
13463;SDS011;6804;48.774;9.174;2022-07-23T13:06:31;5.35;;;4.95;;
13463;SDS011;6804;48.774;9.174;2022-07-23T13:09:04;5.40;;;4.90;;
13463;SDS011;6804;48.774;9.174;2022-07-23T13:11:33;6.13;;;5.47;;
13463;SDS011;6804;48.774;9.174;2022-07-23T13:14:01;5.32;;;4.93;;
13463;SDS011;6804;48.774;9.174;2022-07-23T13:16:30;6.13;;;5.50;;
13463;SDS011;6804;48.774;9.174;2022-07-23T13:18:59;5.72;;;5.22;;
13463;SDS011;6804;48.774;9.174;2022-07-23T13:21:31;5.63;;;5.15;;
13463;SDS011;6804;48.774;9.174;2022-07-23T13:23:59;5.40;;;4.97;;
13463;SDS011;6804;48.774;9.174;2022-07-23T13:26:26;5.18;;;4.78;;
13463;SDS011;6804;48.774;9.174;2022-07-23T13:28:56;5.32;;;4.90;;
13463;SDS011;6804;48.774;9.174;2022-07-23T13:31:24;5.20;;;4.80;;
13463;SDS011;6804;48.774;9.174;2022-07-23T13:33:57;5.30;;;4.90;;
13463;SDS011;6804;48.774;9.174;2022-07-23T13:36:29;5.80;;;5.30;;
13463;SDS011;6804;48.774;9.174;2022-07-23T13:38:57;5.30;;;4.90;;
13463;SDS011;6804;48.774;9.174;2022-07-23T13:41:24;5.75;;;5.35;;
13463;SDS011;6804;48.774;9.174;2022-07-23T13:43:52;5.70;;;5.20;;
13463;SDS011;6804;48.774;9.174;2022-07-23T13:46:21;5.95;;;5.45;;
13463;SDS011;6804;48.774;9.174;2022-07-23T13:48:48;6.13;;;5.63;;
13463;SDS011;6804;48.774;9.174;2022-07-23T13:51:15;7.45;;;6.63;;
13463;SDS011;6804;48.774;9.174;2022-07-23T13:53:47;8.00;;;6.20;;
13463;SDS011;6804;48.774;9.174;2022-07-23T13:56:14;6.80;;;6.20;;
13463;SDS011;6804;48.774;9.174;2022-07-23T13:58:42;7.03;;;6.32;;
13463;SDS011;6804;48.774;9.174;2022-07-23T14:01:10;6.40;;;5.88;;
13463;SDS011;6804;48.774;9.174;2022-07-23T14:03:38;5.82;;;5.32;;
13463;SDS011;6804;48.774;9.174;2022-07-23T14:06:07;6.28;;;5.68;;
13463;SDS011;6804;48.774;9.174;2022-07-23T14:08:35;6.25;;;5.65;;
13463;SDS011;6804;48.774;9.174;2022-07-23T14:11:07;6.50;;;6.00;;
13463;SDS011;6804;48.774;9.174;2022-07-23T14:13:34;6.60;;;6.00;;
13463;SDS011;6804;48.774;9.174;2022-07-23T14:16:02;6.45;;;5.85;;
13463;SDS011;6804;48.774;9.174;2022-07-23T14:18:30;6.72;;;6.13;;
13463;SDS011;6804;48.774;9.174;2022-07-23T14:20:57;6.68;;;6.07;;
13463;SDS011;6804;48.774;9.174;2022-07-23T14:23:27;6.47;;;5.88;;
13463;SDS011;6804;48.774;9.174;2022-07-23T14:25:54;7.10;;;6.50;;
13463;SDS011;6804;48.774;9.174;2022-07-23T14:28:23;6.68;;;5.20;;
13463;SDS011;6804;48.774;9.174;2022-07-23T14:30:51;5.63;;;5.13;;
13463;SDS011;6804;48.774;9.174;2022-07-23T14:33:18;6.25;;;5.68;;
13463;SDS011;6804;48.774;9.174;2022-07-23T14:35:46;6.65;;;5.65;;
13463;SDS011;6804;48.774;9.174;2022-07-23T14:38:15;5.35;;;4.95;;
13463;SDS011;6804;48.774;9.174;2022-07-23T14:40:43;6.22;;;5.70;;
13463;SDS011;6804;48.774;9.174;2022-07-23T14:43:11;6.10;;;5.50;;
13463;SDS011;6804;48.774;9.174;2022-07-23T14:45:42;5.97;;;5.47;;
13463;SDS011;6804;48.774;9.174;2022-07-23T14:48:10;5.97;;;5.43;;
13463;SDS011;6804;48.774;9.174;2022-07-23T14:50:38;6.10;;;5.47;;
13463;SDS011;6804;48.774;9.174;2022-07-23T14:53:06;6.78;;;6.13;;
13463;SDS011;6804;48.774;9.174;2022-07-23T14:55:34;5.55;;;5.10;;
13463;SDS011;6804;48.774;9.174;2022-07-23T14:58:05;7.50;;;6.80;;
13463;SDS011;6804;48.774;9.174;2022-07-23T15:00:35;5.38;;;4.97;;
13463;SDS011;6804;48.774;9.174;2022-07-23T15:03:09;6.40;;;5.80;;
13463;SDS011;6804;48.774;9.174;2022-07-23T15:05:40;5.95;;;5.45;;
13463;SDS011;6804;48.774;9.174;2022-07-23T15:08:10;6.43;;;5.47;;
13463;SDS011;6804;48.774;9.174;2022-07-23T15:10:38;5.85;;;5.15;;
13463;SDS011;6804;48.774;9.174;2022-07-23T15:13:06;5.78;;;5.18;;
13463;SDS011;6804;48.774;9.174;2022-07-23T15:15:34;5.35;;;4.95;;
13463;SDS011;6804;48.774;9.174;2022-07-23T15:18:02;6.47;;;5.50;;
13463;SDS011;6804;48.774;9.174;2022-07-23T15:20:33;6.47;;;5.65;;
13463;SDS011;6804;48.774;9.174;2022-07-23T15:23:02;5.78;;;5.32;;
13463;SDS011;6804;48.774;9.174;2022-07-23T15:25:30;8.82;;;5.82;;
13463;SDS011;6804;48.774;9.174;2022-07-23T15:27:58;5.93;;;5.43;;
13463;SDS011;6804;48.774;9.174;2022-07-23T15:30:26;6.10;;;5.43;;
13463;SDS011;6804;48.774;9.174;2022-07-23T15:32:56;6.63;;;6.00;;
13463;SDS011;6804;48.774;9.174;2022-07-23T15:35:24;5.93;;;5.32;;